Terminal Aerodrome Forecast
Issued by NWS Grand Forks, ND

Home | Current Version | Previous Version | Text Only | Print | Product List | Glossary On
Versions: 1 2 3 4 5 6 7 8 9 10 11 12 13 14 15 16 17
845
FTUS43 KFGF 242340 AAA
TAFGFK
TAF AMD
KGFK 242340Z 2500/2524 32014G24KT P6SM -DZ BKN015 OVC025
      TEMPO 2500/2502 3SM -RA BR OVC010
     FM250400 32011KT P6SM BKN025 OVC035
     FM250700 31009KT P6SM BKN030
     FM251500 33012G18KT P6SM BKN035=

USA.gov is the U.S. government's official web portal to all federal, state and local government web resources and services.